createdAt,value
2022-12-05T00:02:14.905Z,4.86
2022-12-05T00:07:23.356Z,4.04
2022-12-05T00:12:31.883Z,4.34
2022-12-05T00:17:40.141Z,3.64
2022-12-05T00:22:48.868Z,3.89
2022-12-05T00:27:57.217Z,5.12
2022-12-05T00:33:05.891Z,4.16
2022-12-05T00:38:14.520Z,4.24
2022-12-05T00:43:23.173Z,5.06
2022-12-05T00:48:31.495Z,7.06
2022-12-05T00:53:40.612Z,4.36
2022-12-05T00:58:48.843Z,4.83
2022-12-05T01:03:57.533Z,6.17
2022-12-05T01:09:05.717Z,6.24
2022-12-05T01:14:14.472Z,5.13
2022-12-05T01:19:22.994Z,4.45
2022-12-05T01:24:31.612Z,4.33
2022-12-05T01:29:39.855Z,5.46
2022-12-05T01:34:48.245Z,5.15
2022-12-05T01:39:56.434Z,4.80
2022-12-05T01:45:04.543Z,4.82
2022-12-05T01:50:12.737Z,5.61
2022-12-05T01:55:20.976Z,6.43
2022-12-05T02:00:29.110Z,5.20
2022-12-05T02:05:37.472Z,6.48
2022-12-05T02:10:45.450Z,7.18
2022-12-05T02:15:56.922Z,5.60
2022-12-05T02:21:01.781Z,5.66
2022-12-05T02:26:10.351Z,5.09
2022-12-05T02:31:18.594Z,6.03
2022-12-05T02:36:27.039Z,6.29
2022-12-05T02:41:35.027Z,7.07
2022-12-05T02:46:43.190Z,6.47
2022-12-05T02:51:51.510Z,6.63
2022-12-05T02:57:00.312Z,6.53
2022-12-05T03:02:08.686Z,9.65
2022-12-05T03:07:17.288Z,5.59
2022-12-05T03:12:25.790Z,5.85
2022-12-05T03:17:34.334Z,7.49
2022-12-05T03:22:42.670Z,6.21
2022-12-05T03:27:51.272Z,6.24
2022-12-05T03:32:59.350Z,7.31
2022-12-05T03:38:08.014Z,5.44
2022-12-05T03:43:16.059Z,6.30
2022-12-05T03:48:24.446Z,5.66
2022-12-05T03:53:32.595Z,6.74
2022-12-05T03:58:41.126Z,6.48
2022-12-05T04:03:49.411Z,7.78
2022-12-05T04:08:57.903Z,5.86
2022-12-05T04:14:05.917Z,6.53
2022-12-05T04:19:14.204Z,7.95
2022-12-05T04:24:22.423Z,5.62
2022-12-05T04:29:30.728Z,5.89
2022-12-05T04:34:39.066Z,7.79
2022-12-05T04:39:47.809Z,6.90
2022-12-05T04:44:55.637Z,6.51
2022-12-05T04:50:03.903Z,7.85
2022-12-05T04:55:12.357Z,7.30
2022-12-05T05:00:20.710Z,7.90
2022-12-05T05:05:29.395Z,6.95
2022-12-05T05:10:38.240Z,5.57
2022-12-05T05:15:46.433Z,6.06
2022-12-05T05:20:54.923Z,8.11
2022-12-05T05:26:03.454Z,6.42
2022-12-05T05:31:12.256Z,8.54
2022-12-05T05:36:20.677Z,6.38
2022-12-05T05:41:29.348Z,9.25
2022-12-05T05:46:38.312Z,6.66
2022-12-05T05:51:46.686Z,9.32
2022-12-05T05:56:54.635Z,7.13
2022-12-05T06:02:02.996Z,8.05
2022-12-05T06:07:11.000Z,7.67
2022-12-05T06:12:19.925Z,6.58
2022-12-05T06:17:28.334Z,10.25
2022-12-05T06:22:37.156Z,7.98
2022-12-05T06:27:45.170Z,7.63
2022-12-05T06:32:53.654Z,8.51
2022-12-05T06:38:02.074Z,7.59
2022-12-05T06:43:10.572Z,8.73
2022-12-05T06:48:18.731Z,8.58
2022-12-05T06:53:28.609Z,8.75
2022-12-05T06:58:36.628Z,10.72
2022-12-05T07:03:45.126Z,9.07
2022-12-05T07:08:53.258Z,8.50
2022-12-05T07:14:07.337Z,7.61
2022-12-05T07:19:09.824Z,8.51
2022-12-05T07:24:18.592Z,9.31
2022-12-05T07:29:26.863Z,7.25
2022-12-05T07:34:35.545Z,24.27
2022-12-05T07:39:44.064Z,34.59
2022-12-05T07:44:52.818Z,10.86
2022-12-05T07:50:01.289Z,11.02
2022-12-05T07:55:09.901Z,19.95
2022-12-05T08:00:18.387Z,12.60
2022-12-05T08:05:26.944Z,9.63
2022-12-05T08:10:35.233Z,10.39
2022-12-05T08:15:44.096Z,10.98
2022-12-05T08:20:52.733Z,8.59
2022-12-05T08:26:00.995Z,7.59
2022-12-05T08:31:09.315Z,10.47
2022-12-05T08:36:18.188Z,7.79
2022-12-05T08:41:26.268Z,8.76
2022-12-05T08:46:34.907Z,6.79
2022-12-05T08:51:44.082Z,7.55
2022-12-05T08:56:52.852Z,8.89
2022-12-05T09:02:00.991Z,9.83
2022-12-05T09:07:09.462Z,7.45
2022-12-05T09:12:17.490Z,8.91
2022-12-05T09:17:26.588Z,8.86
2022-12-05T09:22:34.822Z,10.61
2022-12-05T09:27:43.671Z,8.35
2022-12-05T09:32:52.221Z,8.04
2022-12-05T09:38:01.309Z,9.58
2022-12-05T09:43:09.992Z,9.04
2022-12-05T09:48:18.547Z,8.89
2022-12-05T09:53:26.734Z,9.06
2022-12-05T09:58:35.166Z,8.76
2022-12-05T10:03:43.865Z,9.20
2022-12-05T10:08:52.433Z,9.48
2022-12-05T10:14:01.608Z,10.91
2022-12-05T10:19:10.048Z,10.27
2022-12-05T10:24:18.348Z,10.89
2022-12-05T10:29:27.429Z,12.55
2022-12-05T10:34:35.879Z,11.46
2022-12-05T10:39:45.023Z,8.31
2022-12-05T10:44:53.176Z,9.77
2022-12-05T10:50:02.315Z,9.35
2022-12-05T10:55:10.750Z,10.58
2022-12-05T11:00:19.630Z,8.37
2022-12-05T11:05:27.531Z,8.92
2022-12-05T11:10:36.456Z,13.23
2022-12-05T11:15:45.155Z,11.63
2022-12-05T11:20:53.857Z,11.71
2022-12-05T11:26:02.634Z,9.03
2022-12-05T11:31:11.705Z,10.59
2022-12-05T11:36:20.234Z,10.39
2022-12-05T11:41:29.187Z,9.72
2022-12-05T11:46:40.294Z,9.62
2022-12-05T11:51:39.112Z,10.58
2022-12-05T11:56:47.384Z,8.99
2022-12-05T12:01:56.759Z,7.36
2022-12-05T12:07:05.371Z,7.79
2022-12-05T12:12:14.092Z,9.89
2022-12-05T12:17:22.341Z,9.27
2022-12-05T12:22:31.053Z,7.50
2022-12-05T12:27:39.357Z,7.39
2022-12-05T12:32:47.738Z,8.21
2022-12-05T12:37:56.110Z,8.46
2022-12-05T12:43:06.190Z,8.39
2022-12-05T12:48:04.439Z,7.76
2022-12-05T12:53:13.146Z,7.88
2022-12-05T12:58:21.706Z,7.97
2022-12-05T13:03:30.446Z,7.94
2022-12-05T13:08:39.413Z,8.02
2022-12-05T13:13:47.937Z,7.98
2022-12-05T13:18:56.516Z,9.95
2022-12-05T13:24:05.098Z,11.53
2022-12-05T13:29:13.463Z,10.28
2022-12-05T13:34:22.125Z,11.62
2022-12-05T13:39:29.988Z,11.70
2022-12-05T13:44:38.592Z,10.25
2022-12-05T13:49:47.226Z,13.72
2022-12-05T13:54:55.700Z,17.56
2022-12-05T14:00:03.896Z,15.56
2022-12-05T14:05:12.332Z,14.03
2022-12-05T14:10:20.421Z,13.04
2022-12-05T14:15:28.892Z,11.51
2022-12-05T14:20:37.183Z,11.42
2022-12-05T14:25:57.342Z,10.86
2022-12-05T14:30:53.448Z,9.81
2022-12-05T14:36:02.202Z,8.69
2022-12-05T14:41:10.221Z,11.38
2022-12-05T14:46:18.794Z,8.57
2022-12-05T14:51:27.095Z,12.88
2022-12-05T14:56:35.571Z,9.93
2022-12-05T15:01:43.966Z,9.88
2022-12-05T15:06:52.262Z,9.20
2022-12-05T15:12:04.766Z,10.76
2022-12-05T15:17:08.508Z,12.97
2022-12-05T15:22:16.498Z,10.45
2022-12-05T15:27:24.795Z,8.47
2022-12-05T15:32:32.911Z,8.51
2022-12-05T15:37:41.272Z,10.77
2022-12-05T15:42:49.543Z,9.33
2022-12-05T15:47:58.045Z,10.04
2022-12-05T15:53:06.217Z,8.89
2022-12-05T15:58:14.610Z,11.05
2022-12-05T16:03:22.893Z,9.81
2022-12-05T16:08:31.572Z,9.03
2022-12-05T16:13:40.536Z,9.27
2022-12-05T16:18:49.432Z,10.67
2022-12-05T16:23:57.626Z,10.50
2022-12-05T16:29:06.399Z,8.00
2022-12-05T16:34:14.788Z,9.90
2022-12-05T16:39:23.301Z,7.38
2022-12-05T16:44:32.170Z,7.57
2022-12-05T16:49:45.976Z,6.68
2022-12-05T16:54:48.408Z,7.50
2022-12-05T16:59:57.207Z,8.08
2022-12-05T17:05:05.724Z,7.71
2022-12-05T17:10:14.750Z,7.39
2022-12-05T17:15:22.739Z,7.64
2022-12-05T17:20:31.384Z,5.71
2022-12-05T17:25:39.720Z,8.18
2022-12-05T17:30:48.049Z,8.29
2022-12-05T17:35:56.586Z,7.96
2022-12-05T17:41:07.341Z,8.83
2022-12-05T17:46:13.824Z,8.43
2022-12-05T17:51:22.547Z,7.84
2022-12-05T17:56:30.975Z,7.88
2022-12-05T18:01:39.098Z,8.09
2022-12-05T18:06:47.247Z,7.46
2022-12-05T18:11:56.118Z,7.19
2022-12-05T18:17:04.375Z,9.75
2022-12-05T18:22:14.671Z,9.20
2022-12-05T18:27:20.928Z,8.19
2022-12-05T18:32:29.155Z,8.53
2022-12-05T18:37:37.181Z,7.24
2022-12-05T18:42:45.765Z,7.73
2022-12-05T18:48:00.421Z,8.75
2022-12-05T18:53:02.486Z,7.92
2022-12-05T18:58:10.864Z,6.80
2022-12-05T19:03:19.181Z,7.96
2022-12-05T19:08:27.670Z,7.04
2022-12-05T19:13:36.337Z,9.43
2022-12-05T19:18:44.585Z,8.61
2022-12-05T19:23:53.451Z,7.59
2022-12-05T19:29:02.147Z,7.68
2022-12-05T19:34:11.323Z,7.22
2022-12-05T19:39:19.647Z,7.92
2022-12-05T19:44:28.221Z,7.52
2022-12-05T19:49:36.819Z,6.83
2022-12-05T19:54:45.590Z,7.72
2022-12-05T19:59:53.865Z,9.86
2022-12-05T20:05:02.367Z,8.73
2022-12-05T20:10:10.550Z,9.61
2022-12-05T20:15:19.002Z,9.47
2022-12-05T20:20:27.052Z,9.14
2022-12-05T20:25:35.600Z,8.13
2022-12-05T20:30:43.713Z,8.10
2022-12-05T20:35:52.088Z,9.51
2022-12-05T20:41:00.240Z,9.28
2022-12-05T20:46:08.716Z,6.98
2022-12-05T20:51:17.110Z,7.89
2022-12-05T20:56:25.751Z,8.26
2022-12-05T21:01:34.377Z,8.20
2022-12-05T21:06:42.049Z,7.89
2022-12-05T21:11:50.052Z,8.58
2022-12-05T21:16:58.783Z,8.11
2022-12-05T21:22:06.853Z,7.89
2022-12-05T21:27:15.358Z,8.34
2022-12-05T21:32:23.698Z,8.81
2022-12-05T21:37:32.183Z,9.05
2022-12-05T21:42:40.282Z,8.24
2022-12-05T21:47:48.686Z,9.46
2022-12-05T21:52:56.924Z,11.11
2022-12-05T21:58:05.442Z,8.97
2022-12-05T22:03:13.595Z,9.32
2022-12-05T22:08:22.299Z,8.27
2022-12-05T22:13:30.248Z,9.34
2022-12-05T22:18:38.714Z,9.80
2022-12-05T22:23:46.721Z,11.35
2022-12-05T22:28:55.228Z,9.42
2022-12-05T22:34:03.476Z,8.97
2022-12-05T22:39:12.033Z,8.93
2022-12-05T22:44:20.428Z,9.50
2022-12-05T22:49:29.152Z,8.67
2022-12-05T22:54:37.475Z,8.22
2022-12-05T22:59:45.919Z,9.43
2022-12-05T23:04:54.236Z,8.64
2022-12-05T23:10:02.671Z,11.19
2022-12-05T23:15:10.685Z,9.96
2022-12-05T23:20:18.973Z,8.71
2022-12-05T23:25:27.211Z,10.06
2022-12-05T23:30:35.692Z,8.32
2022-12-05T23:35:43.903Z,11.39
2022-12-05T23:40:52.756Z,10.41
2022-12-05T23:46:01.334Z,11.64
2022-12-05T23:51:10.176Z,10.56
2022-12-05T23:56:18.739Z,11.43
